createdAt,value
2017-09-21T00:00:36.165Z,1015.47
2017-09-21T00:01:46.108Z,1015.43
2017-09-21T00:02:56.354Z,1015.47
2017-09-21T00:04:06.630Z,1015.47
2017-09-21T00:05:16.884Z,1015.46
2017-09-21T00:06:26.822Z,1015.52
2017-09-21T00:07:37.320Z,1015.52
2017-09-21T00:08:47.260Z,1015.49
2017-09-21T00:09:57.522Z,1015.52
2017-09-21T00:11:07.770Z,1015.48
2017-09-21T00:12:16.757Z,1015.47
2017-09-21T00:13:27.255Z,1015.48
2017-09-21T00:14:37.497Z,1015.48
2017-09-21T00:15:47.439Z,1015.5
2017-09-21T00:16:57.687Z,1015.5
2017-09-21T00:18:07.959Z,1015.48
2017-09-21T00:19:18.461Z,1015.5
2017-09-21T00:20:28.412Z,1015.56
2017-09-21T00:21:38.673Z,1015.54
2017-09-21T00:22:48.609Z,1015.52
2017-09-21T00:23:58.870Z,1015.52
2017-09-21T00:25:09.375Z,1015.49
2017-09-21T00:26:19.308Z,1015.48
2017-09-21T00:27:28.935Z,1015.48
2017-09-21T00:28:39.207Z,1015.46
2017-09-21T00:29:49.143Z,1015.47
2017-09-21T00:30:59.072Z,1015.47
2017-09-21T00:32:09.005Z,1015.51
2017-09-21T00:33:19.255Z,1015.54
2017-09-21T00:34:29.501Z,1015.53
2017-09-21T00:35:39.754Z,1015.56
2017-09-21T00:36:50.257Z,1015.59
2017-09-21T00:38:00.514Z,1015.58
2017-09-21T00:39:10.771Z,1015.62
2017-09-21T00:40:21.028Z,1015.68
2017-09-21T00:41:31.280Z,1015.68
2017-09-21T00:42:41.467Z,1015.7
2017-09-21T00:43:51.106Z,1015.71
2017-09-21T00:45:01.354Z,1015.75
2017-09-21T00:46:11.613Z,1015.78
2017-09-21T00:47:21.869Z,1015.77
2017-09-21T00:48:32.065Z,1015.77
2017-09-21T00:49:42.007Z,1015.76
2017-09-21T00:50:52.264Z,1015.71
2017-09-21T00:52:02.511Z,1015.78
2017-09-21T00:53:12.758Z,1015.79
2017-09-21T00:54:23.257Z,1015.78
2017-09-21T00:55:33.503Z,1015.78
2017-09-21T00:56:43.438Z,1015.77
2017-09-21T00:57:53.371Z,1015.76
2017-09-21T00:59:03.633Z,1015.78
2017-09-21T01:00:13.815Z,1015.79
2017-09-21T01:01:24.060Z,1015.78
2017-09-21T01:02:34.311Z,1015.79
2017-09-21T01:03:44.249Z,1015.73
2017-09-21T01:04:54.500Z,1015.77
2017-09-21T01:06:04.993Z,1015.72
2017-09-21T01:07:14.611Z,1015.74
2017-09-21T01:08:24.541Z,1015.68
2017-09-21T01:09:34.798Z,1015.66
2017-09-21T01:10:45.045Z,1015.63
2017-09-21T01:11:55.551Z,1015.63
2017-09-21T01:13:04.856Z,1015.64
2017-09-21T01:14:15.110Z,1015.61
2017-09-21T01:15:25.056Z,1015.61
2017-09-21T01:16:35.304Z,1015.61
2017-09-21T01:17:45.863Z,1015.6
2017-09-21T01:18:55.490Z,1015.62
2017-09-21T01:20:05.112Z,1015.63
2017-09-21T01:21:15.359Z,1015.63
2017-09-21T01:22:25.623Z,1015.64
2017-09-21T01:23:35.806Z,1015.66
2017-09-21T01:24:46.062Z,1015.66
2017-09-21T01:25:56.002Z,1015.68
2017-09-21T01:27:05.936Z,1015.67
2017-09-21T01:28:16.188Z,1015.69
2017-09-21T01:29:26.732Z,1015.67
2017-09-21T01:30:36.360Z,1015.73
2017-09-21T01:31:52.872Z,1015.76
2017-09-21T01:33:02.492Z,1015.73
2017-09-21T01:34:12.739Z,1015.74
2017-09-21T01:35:23.246Z,1015.75
2017-09-21T01:36:33.500Z,1015.75
2017-09-21T01:37:43.755Z,1015.75
2017-09-21T01:38:53.711Z,1015.76
2017-09-21T01:40:03.642Z,1015.76
2017-09-21T01:41:14.143Z,1015.78
2017-09-21T01:42:24.084Z,1015.76
2017-09-21T01:43:34.026Z,1015.76
2017-09-21T01:44:44.499Z,1015.72
2017-09-21T01:45:54.748Z,1015.75
2017-09-21T01:47:05.252Z,1015.79
2017-09-21T01:48:15.199Z,1015.75
2017-09-21T01:49:25.451Z,1015.81
2017-09-21T01:50:35.695Z,1015.78
2017-09-21T01:51:45.937Z,1015.79
2017-09-21T01:52:56.496Z,1015.74
2017-09-21T01:54:06.428Z,1015.79
2017-09-21T01:55:16.678Z,1015.77
2017-09-21T01:56:26.918Z,1015.83
2017-09-21T01:57:37.177Z,1015.77
2017-09-21T01:58:47.354Z,1015.77
2017-09-21T01:59:57.287Z,1015.7
2017-09-21T02:01:07.528Z,1015.7
2017-09-21T02:02:17.812Z,1015.7
2017-09-21T02:03:28.057Z,1015.7
2017-09-21T02:04:38.247Z,1015.68
2017-09-21T02:05:48.179Z,1015.69
2017-09-21T02:06:58.113Z,1015.69
2017-09-21T02:08:07.724Z,1015.66
2017-09-21T02:09:17.971Z,1015.67
2017-09-21T02:10:28.464Z,1015.67
2017-09-21T02:11:38.396Z,1015.68
2017-09-21T02:12:48.747Z,1015.67
2017-09-21T02:13:58.997Z,1015.64
2017-09-21T02:15:08.936Z,1015.64
2017-09-21T02:16:19.432Z,1015.6
2017-09-21T02:17:29.685Z,1015.58
2017-09-21T02:18:39.931Z,1015.59
2017-09-21T02:19:49.864Z,1015.58
2017-09-21T02:21:00.113Z,1015.59
2017-09-21T02:22:10.297Z,1015.61
2017-09-21T02:23:20.225Z,1015.57
2017-09-21T02:24:30.480Z,1015.55
2017-09-21T02:25:40.418Z,1015.6
2017-09-21T02:26:50.355Z,1015.58
2017-09-21T02:28:00.854Z,1015.64
2017-09-21T02:29:11.102Z,1015.65
2017-09-21T02:30:21.042Z,1015.63
2017-09-21T02:31:31.300Z,1015.62
2017-09-21T02:32:41.557Z,1015.59
2017-09-21T02:33:52.063Z,1015.57
2017-09-21T02:35:02.352Z,1015.53
2017-09-21T02:36:12.609Z,1015.56
2017-09-21T02:37:22.868Z,1015.55
2017-09-21T02:38:32.801Z,1015.54
2017-09-21T02:39:42.671Z,1015.56
2017-09-21T02:40:52.606Z,1015.52
2017-09-21T02:42:02.539Z,1015.57
2017-09-21T02:43:12.156Z,1015.56
2017-09-21T02:44:22.098Z,1015.54
2017-09-21T02:45:32.647Z,1015.49
2017-09-21T02:46:42.582Z,1015.45
2017-09-21T02:47:52.528Z,1015.42
2017-09-21T02:49:02.468Z,1015.44
2017-09-21T02:50:12.405Z,1015.4
2017-09-21T02:51:22.599Z,1015.43
2017-09-21T02:52:32.543Z,1015.43
2017-09-21T02:53:42.786Z,1015.42
2017-09-21T02:54:53.033Z,1015.43
2017-09-21T02:56:02.981Z,1015.42
2017-09-21T02:57:13.478Z,1015.47
2017-09-21T02:58:23.420Z,1015.44
2017-09-21T02:59:33.673Z,1015.44
2017-09-21T03:00:43.913Z,1015.44
2017-09-21T03:01:53.846Z,1015.45
2017-09-21T03:03:04.397Z,1015.46
2017-09-21T03:04:14.659Z,1015.49
2017-09-21T03:05:24.277Z,1015.45
2017-09-21T03:06:34.523Z,1015.49
2017-09-21T03:07:44.452Z,1015.47
2017-09-21T03:08:54.950Z,1015.51
2017-09-21T03:10:04.566Z,1015.49
2017-09-21T03:11:14.814Z,1015.5
2017-09-21T03:12:25.064Z,1015.46
2017-09-21T03:13:35.320Z,1015.47
2017-09-21T03:14:45.512Z,1015.41
2017-09-21T03:15:55.759Z,1015.42
2017-09-21T03:17:06.000Z,1015.41
2017-09-21T03:18:16.251Z,1015.39
2017-09-21T03:19:26.185Z,1015.42
2017-09-21T03:20:35.744Z,1015.36
2017-09-21T03:21:45.044Z,1015.32
2017-09-21T03:22:55.309Z,1015.35
2017-09-21T03:24:05.254Z,1015.34
2017-09-21T03:25:15.512Z,1015.33
2017-09-21T03:26:26.009Z,1015.34
2017-09-21T03:27:36.268Z,1015.32
2017-09-21T03:28:46.204Z,1015.31
2017-09-21T03:29:56.148Z,1015.31
2017-09-21T03:31:06.397Z,1015.31
2017-09-21T03:32:16.588Z,1015.3
2017-09-21T03:33:26.520Z,1015.25
2017-09-21T03:34:36.452Z,1015.25
2017-09-21T03:35:46.386Z,1015.25
2017-09-21T03:36:56.348Z,1015.24
2017-09-21T03:38:06.840Z,1015.25
2017-09-21T03:39:17.095Z,1015.25
2017-09-21T03:40:27.029Z,1015.28
2017-09-21T03:41:37.273Z,1015.29
2017-09-21T03:42:47.523Z,1015.3
2017-09-21T03:43:58.019Z,1015.31
2017-09-21T03:45:07.958Z,1015.31
2017-09-21T03:46:17.911Z,1015.33
2017-09-21T03:47:27.845Z,1015.35
2017-09-21T03:48:38.097Z,1015.31
2017-09-21T03:49:48.592Z,1015.33
2017-09-21T03:50:58.837Z,1015.29
2017-09-21T03:52:09.083Z,1015.33
2017-09-21T03:53:19.020Z,1015.28
2017-09-21T03:54:28.952Z,1015.31
2017-09-21T03:55:38.829Z,1015.32
2017-09-21T03:56:48.768Z,1015.29
2017-09-21T03:57:59.017Z,1015.26
2017-09-21T03:59:09.264Z,1015.26
2017-09-21T04:00:19.193Z,1015.32
2017-09-21T04:01:29.379Z,1015.33
2017-09-21T04:02:39.651Z,1015.3
2017-09-21T04:03:49.909Z,1015.32
2017-09-21T04:05:00.157Z,1015.33
2017-09-21T04:06:10.096Z,1015.34
2017-09-21T04:07:20.283Z,1015.31
2017-09-21T04:08:30.527Z,1015.31
2017-09-21T04:09:40.770Z,1015.31
2017-09-21T04:10:51.024Z,1015.37
2017-09-21T04:12:01.273Z,1015.41
2017-09-21T04:13:11.776Z,1015.43
2017-09-21T04:14:22.050Z,1015.42
2017-09-21T04:15:32.150Z,1015.43
2017-09-21T04:16:42.402Z,1015.42
2017-09-21T04:17:52.338Z,1015.43
2017-09-21T04:19:02.841Z,1015.46
2017-09-21T04:20:13.100Z,1015.42
2017-09-21T04:21:23.346Z,1015.46
2017-09-21T04:22:33.281Z,1015.47
2017-09-21T04:23:43.535Z,1015.5
2017-09-21T04:24:53.707Z,1015.54
2017-09-21T04:26:03.329Z,1015.53
2017-09-21T04:27:13.259Z,1015.51
2017-09-21T04:28:23.510Z,1015.5
2017-09-21T04:29:33.767Z,1015.44
2017-09-21T04:30:44.009Z,1015.43
2017-09-21T04:31:53.960Z,1015.38
2017-09-21T04:33:04.222Z,1015.39
2017-09-21T04:34:14.477Z,1015.41
2017-09-21T04:35:24.731Z,1015.38
2017-09-21T04:36:35.245Z,1015.4
2017-09-21T04:37:45.179Z,1015.32
2017-09-21T04:38:55.430Z,1015.36
2017-09-21T04:40:05.673Z,1015.31
2017-09-21T04:41:15.923Z,1015.31
2017-09-21T04:42:26.116Z,1015.31
2017-09-21T04:43:36.081Z,1015.27
2017-09-21T04:44:46.019Z,1015.28
2017-09-21T04:45:56.291Z,1015.33
2017-09-21T04:47:06.544Z,1015.41
2017-09-21T04:48:17.040Z,1015.38
2017-09-21T04:49:27.287Z,1015.4
2017-09-21T04:50:37.541Z,1015.4
2017-09-21T04:51:47.467Z,1015.43
2017-09-21T04:52:57.416Z,1015.47
2017-09-21T04:54:07.614Z,1015.47
2017-09-21T04:55:17.565Z,1015.5
2017-09-21T04:56:27.816Z,1015.53
2017-09-21T04:57:38.068Z,1015.5
2017-09-21T04:58:48.927Z,1015.45
2017-09-21T04:59:59.431Z,1015.51
2017-09-21T05:01:09.681Z,1015.47
2017-09-21T05:02:19.301Z,1015.47
2017-09-21T05:03:29.544Z,1015.44
2017-09-21T05:04:39.482Z,1015.45
2017-09-21T05:05:50.024Z,1015.44
2017-09-21T05:07:00.281Z,1015.43
2017-09-21T05:08:10.217Z,1015.44
2017-09-21T05:09:20.146Z,1015.37
2017-09-21T05:10:30.393Z,1015.4
2017-09-21T05:11:40.572Z,1015.43
2017-09-21T05:12:50.512Z,1015.43
2017-09-21T05:14:00.454Z,1015.48
2017-09-21T05:15:10.378Z,1015.45
2017-09-21T05:16:20.636Z,1015.49
2017-09-21T05:17:31.136Z,1015.5
2017-09-21T05:18:41.392Z,1015.48
2017-09-21T05:19:51.639Z,1015.44
2017-09-21T05:21:01.890Z,1015.5
2017-09-21T05:22:11.827Z,1015.56
2017-09-21T05:23:22.324Z,1015.63
2017-09-21T05:24:31.950Z,1015.66
2017-09-21T05:25:42.247Z,1015.68
2017-09-21T05:26:52.506Z,1015.63
2017-09-21T05:28:02.447Z,1015.63
2017-09-21T05:29:12.982Z,1015.65
2017-09-21T05:30:23.239Z,1015.64
2017-09-21T05:31:33.484Z,1015.66
2017-09-21T05:32:43.425Z,1015.67
2017-09-21T05:33:53.357Z,1015.62
2017-09-21T05:35:03.542Z,1015.65
2017-09-21T05:36:13.468Z,1015.58
2017-09-21T05:37:23.086Z,1015.61
2017-09-21T05:38:33.330Z,1015.54
2017-09-21T05:39:43.272Z,1015.51
2017-09-21T05:40:53.781Z,1015.53
2017-09-21T05:42:04.026Z,1015.48
2017-09-21T05:43:14.281Z,1015.53
2017-09-21T05:44:24.532Z,1015.54
2017-09-21T05:45:34.783Z,1015.53
2017-09-21T05:46:44.341Z,1015.51
2017-09-21T05:47:54.604Z,1015.51
2017-09-21T05:49:04.851Z,1015.55
2017-09-21T05:50:14.799Z,1015.58
2017-09-21T05:51:24.748Z,1015.54
2017-09-21T05:52:35.249Z,1015.57
2017-09-21T05:53:44.867Z,1015.53
2017-09-21T05:54:54.811Z,1015.52
2017-09-21T05:56:05.062Z,1015.52
2017-09-21T05:57:15.001Z,1015.51
2017-09-21T05:58:25.517Z,1015.57
2017-09-21T05:59:35.759Z,1015.58
2017-09-21T06:00:45.065Z,1015.56
2017-09-21T06:01:55.328Z,1015.6
2017-09-21T06:03:05.267Z,1015.54
2017-09-21T06:04:15.135Z,1015.58
2017-09-21T06:05:25.295Z,1015.53
2017-09-21T06:06:35.559Z,1015.61
2017-09-21T06:07:45.812Z,1015.62
2017-09-21T06:08:55.765Z,1015.6
2017-09-21T06:10:05.963Z,1015.6
2017-09-21T06:11:16.229Z,1015.59
2017-09-21T06:12:26.476Z,1015.58
2017-09-21T06:13:36.742Z,1015.55
2017-09-21T06:14:47.000Z,1015.54
2017-09-21T06:15:57.499Z,1015.54
2017-09-21T06:17:07.761Z,1015.57
2017-09-21T06:18:17.393Z,1015.59
2017-09-21T06:19:27.651Z,1015.56
2017-09-21T06:20:37.899Z,1015.58
2017-09-21T06:21:48.394Z,1015.62
2017-09-21T06:22:58.337Z,1015.62
2017-09-21T06:24:07.972Z,1015.59
2017-09-21T06:25:17.922Z,1015.61
2017-09-21T06:26:28.194Z,1015.62
2017-09-21T06:27:38.707Z,1015.65
2017-09-21T06:28:48.649Z,1015.68
2017-09-21T06:29:58.898Z,1015.67
2017-09-21T06:31:09.140Z,1015.67
2017-09-21T06:32:19.395Z,1015.68
2017-09-21T06:33:29.962Z,1015.7
2017-09-21T06:34:40.233Z,1015.75
2017-09-21T06:35:50.486Z,1015.74
2017-09-21T06:37:00.743Z,1015.7
2017-09-21T06:38:10.690Z,1015.7
2017-09-21T06:39:21.195Z,1015.71
2017-09-21T06:40:31.466Z,1015.72
2017-09-21T06:41:41.409Z,1015.7
2017-09-21T06:42:51.349Z,1015.7
2017-09-21T06:44:01.312Z,1015.71
2017-09-21T06:45:11.825Z,1015.7
2017-09-21T06:46:22.074Z,1015.7
2017-09-21T06:47:32.391Z,1015.76
2017-09-21T06:48:42.649Z,1015.74
2017-09-21T06:49:52.926Z,1015.77
2017-09-21T06:51:03.439Z,1015.79
2017-09-21T06:52:13.368Z,1015.79
2017-09-21T06:53:23.627Z,1015.76
2017-09-21T06:54:33.894Z,1015.78
2017-09-21T06:55:43.525Z,1015.76
2017-09-21T06:56:53.720Z,1015.79
2017-09-21T06:58:03.997Z,1015.78
2017-09-21T06:59:14.259Z,1015.89
2017-09-21T07:00:24.209Z,1015.9
2017-09-21T07:01:34.471Z,1015.9
2017-09-21T07:02:44.969Z,1015.9
2017-09-21T07:03:55.222Z,1015.88
2017-09-21T07:05:05.508Z,1015.92
2017-09-21T07:06:15.813Z,1015.88
2017-09-21T07:07:25.757Z,1015.89
2017-09-21T07:08:36.267Z,1015.85
2017-09-21T07:09:46.206Z,1015.87
2017-09-21T07:10:56.457Z,1015.8
2017-09-21T07:12:06.399Z,1015.79
2017-09-21T07:13:16.665Z,1015.79
2017-09-21T07:14:26.853Z,1015.76
2017-09-21T07:15:37.107Z,1015.77
2017-09-21T07:16:47.366Z,1015.8
2017-09-21T07:17:57.313Z,1015.79
2017-09-21T07:19:07.258Z,1015.81
2017-09-21T07:20:17.151Z,1015.85
2017-09-21T07:21:27.420Z,1015.82
2017-09-21T07:22:37.679Z,1015.82
2017-09-21T07:23:47.937Z,1015.89
2017-09-21T07:24:57.582Z,1015.86
2017-09-21T07:26:08.101Z,1015.87
2017-09-21T07:27:18.029Z,1015.84
2017-09-21T07:28:28.308Z,1015.83
2017-09-21T07:29:38.569Z,1015.85
2017-09-21T07:30:48.832Z,1015.88
2017-09-21T07:31:59.018Z,1015.89
2017-09-21T07:33:09.284Z,1015.94
2017-09-21T07:34:19.558Z,1015.92
2017-09-21T07:35:29.526Z,1015.97
2017-09-21T07:36:39.825Z,1015.99
2017-09-21T07:37:50.016Z,1015.98
2017-09-21T07:39:00.293Z,1015.95
2017-09-21T07:40:09.915Z,1015.95
2017-09-21T07:41:20.189Z,1015.96
2017-09-21T07:42:30.456Z,1015.94
2017-09-21T07:43:40.653Z,1015.92
2017-09-21T07:44:50.937Z,1015.93
2017-09-21T07:46:01.210Z,1015.98
2017-09-21T07:47:11.484Z,1015.99
2017-09-21T07:48:21.420Z,1016
2017-09-21T07:49:31.616Z,1015.98
2017-09-21T07:50:41.255Z,1015.97
2017-09-21T07:51:51.508Z,1015.96
2017-09-21T07:53:01.460Z,1015.93
2017-09-21T07:54:11.722Z,1015.94
2017-09-21T07:55:22.249Z,1015.92
2017-09-21T07:56:32.734Z,1015.97
2017-09-21T07:57:43.003Z,1015.97
2017-09-21T07:58:53.269Z,1015.98
2017-09-21T08:00:03.561Z,1015.98
2017-09-21T08:01:13.447Z,1016
2017-09-21T08:02:23.722Z,1016
2017-09-21T08:03:34.214Z,1015.98
2017-09-21T08:04:44.527Z,1016
2017-09-21T08:05:54.701Z,1016.01
2017-09-21T08:07:05.265Z,1015.96
2017-09-21T08:08:15.534Z,1016.03
2017-09-21T08:09:25.471Z,1016.04
2017-09-21T08:10:35.412Z,1016.06
2017-09-21T08:11:45.707Z,1016.09
2017-09-21T08:12:56.243Z,1016.1
2017-09-21T08:14:06.209Z,1016.07
2017-09-21T08:15:15.847Z,1016.05
2017-09-21T08:16:25.792Z,1016.04
2017-09-21T08:17:35.734Z,1016.05
2017-09-21T08:18:46.269Z,1016.06
2017-09-21T08:19:56.225Z,1016.04
2017-09-21T08:21:06.484Z,1016.04
2017-09-21T08:22:16.749Z,1016.03
2017-09-21T08:23:26.370Z,1016.05
2017-09-21T08:24:36.900Z,1016.09
2017-09-21T08:25:46.840Z,1016.09
2017-09-21T08:26:57.128Z,1016.08
2017-09-21T08:28:07.419Z,1016.08
2017-09-21T08:29:17.373Z,1016.13
2017-09-21T08:30:27.585Z,1016.1
2017-09-21T08:31:37.852Z,1016.09
2017-09-21T08:32:48.123Z,1016.06
2017-09-21T08:33:58.106Z,1016.11
2017-09-21T08:35:08.061Z,1016.08
2017-09-21T08:36:18.558Z,1016.04
2017-09-21T08:37:28.826Z,1016.03
2017-09-21T08:38:39.106Z,1016.09
2017-09-21T08:39:48.443Z,1016.05
2017-09-21T08:40:58.712Z,1016.07
2017-09-21T08:42:09.037Z,1016.06
2017-09-21T08:43:19.001Z,1016.08
2017-09-21T08:44:29.283Z,1016.06
2017-09-21T08:45:39.588Z,1016.04
2017-09-21T08:46:49.864Z,1016.04
2017-09-21T08:48:00.387Z,1016.03
2017-09-21T08:49:10.361Z,1016.14
2017-09-21T08:50:20.305Z,1016
2017-09-21T08:51:30.565Z,1016.03
2017-09-21T08:52:40.193Z,1016.04
2017-09-21T08:53:50.801Z,1015.98
2017-09-21T08:55:01.070Z,1016.02
2017-09-21T08:56:11.331Z,1016.04
2017-09-21T08:57:21.634Z,1016.04
2017-09-21T08:58:31.657Z,1016.07
2017-09-21T08:59:42.327Z,1016.02
2017-09-21T09:00:52.604Z,1016.04
2017-09-21T09:02:02.896Z,1016.02
2017-09-21T09:03:13.179Z,1016
2017-09-21T09:04:23.466Z,1016.03
2017-09-21T09:05:33.768Z,1016.02
2017-09-21T09:06:44.033Z,1016.03
2017-09-21T09:07:53.997Z,1016
2017-09-21T09:09:04.283Z,1016.02
2017-09-21T09:10:14.568Z,1016.05
2017-09-21T09:11:25.180Z,1016.05
2017-09-21T09:12:35.468Z,1016.02
2017-09-21T09:13:45.747Z,1016.02
2017-09-21T09:14:56.024Z,1016.04
2017-09-21T09:16:06.301Z,1016.09
2017-09-21T09:17:16.871Z,1016.07
2017-09-21T09:18:27.132Z,1016.02
2017-09-21T09:19:36.450Z,1016.08
2017-09-21T09:20:46.424Z,1016.02
2017-09-21T09:21:56.720Z,1016.03
2017-09-21T09:23:07.004Z,1016.01
2017-09-21T09:24:16.953Z,1016.01
2017-09-21T09:25:26.928Z,1016.02
2017-09-21T09:26:37.180Z,1016
2017-09-21T09:27:47.441Z,1016.07
2017-09-21T09:28:57.957Z,1016.07
2017-09-21T09:30:08.284Z,1016.08
2017-09-21T09:31:18.231Z,1016.05
2017-09-21T09:32:28.485Z,1016.06
2017-09-21T09:33:38.757Z,1016
2017-09-21T09:34:49.549Z,1016.06
2017-09-21T09:35:59.820Z,1016.04
2017-09-21T09:37:10.118Z,1016.05
2017-09-21T09:38:20.403Z,1016.09
2017-09-21T09:39:30.367Z,1016.05
2017-09-21T09:40:40.672Z,1016.03
2017-09-21T09:41:50.947Z,1015.94
2017-09-21T09:43:01.235Z,1015.95
2017-09-21T09:44:11.197Z,1015.95
2017-09-21T09:45:21.173Z,1015.93
2017-09-21T09:46:31.700Z,1015.98
2017-09-21T09:47:41.972Z,1015.96
2017-09-21T09:48:52.220Z,1015.97
2017-09-21T09:50:02.169Z,1015.96
2017-09-21T09:51:12.140Z,1015.96
2017-09-21T09:52:22.121Z,1015.97
2017-09-21T09:53:32.087Z,1015.96
2017-09-21T09:54:42.080Z,1015.94
2017-09-21T09:55:52.349Z,1015.92
2017-09-21T09:57:02.620Z,1015.91
2017-09-21T09:58:12.512Z,1015.89
2017-09-21T09:59:22.465Z,1015.97
2017-09-21T10:00:32.732Z,1015.96
2017-09-21T10:01:43.033Z,1015.98
2017-09-21T10:02:52.986Z,1015.99
2017-09-21T10:04:03.513Z,1015.9
2017-09-21T10:05:13.458Z,1015.94
2017-09-21T10:06:23.734Z,1015.92
2017-09-21T10:07:34.020Z,1015.87
2017-09-21T10:08:43.353Z,1015.91
2017-09-21T10:09:53.613Z,1015.88
2017-09-21T10:11:04.323Z,1015.87
2017-09-21T10:12:14.622Z,1015.85
2017-09-21T10:13:24.001Z,1015.78
2017-09-21T10:14:33.633Z,1015.88
2017-09-21T10:15:43.947Z,1015.84
2017-09-21T10:16:53.897Z,1015.82
2017-09-21T10:18:04.191Z,1015.8
2017-09-21T10:19:13.823Z,1015.86
2017-09-21T10:20:24.102Z,1015.89
2017-09-21T10:21:34.733Z,1015.86
2017-09-21T10:22:45.032Z,1015.82
2017-09-21T10:23:55.288Z,1015.83
2017-09-21T10:25:05.581Z,1015.89
2017-09-21T10:26:15.535Z,1015.85
2017-09-21T10:27:26.105Z,1015.85
2017-09-21T10:28:36.122Z,1015.85
2017-09-21T10:29:46.396Z,1015.87
2017-09-21T10:30:56.694Z,1015.82
2017-09-21T10:32:06.633Z,1015.82
2017-09-21T10:33:17.244Z,1015.82
2017-09-21T10:34:26.889Z,1015.8
2017-09-21T10:35:37.169Z,1015.83
2017-09-21T10:36:47.443Z,1015.8
2017-09-21T10:37:57.720Z,1015.8
2017-09-21T10:39:08.342Z,1015.82
2017-09-21T10:40:18.621Z,1015.77
2017-09-21T10:41:28.583Z,1015.81
2017-09-21T10:42:39.140Z,1015.8
2017-09-21T10:43:49.083Z,1015.83
2017-09-21T10:44:59.702Z,1015.84
2017-09-21T10:46:09.962Z,1015.8
2017-09-21T10:47:19.943Z,1015.75
2017-09-21T10:48:30.235Z,1015.78
2017-09-21T10:49:40.189Z,1015.8
2017-09-21T10:50:50.801Z,1015.78
2017-09-21T10:52:01.065Z,1015.8
2017-09-21T10:53:11.328Z,1015.79
2017-09-21T10:54:21.594Z,1015.79
2017-09-21T10:55:31.858Z,1015.75
2017-09-21T10:56:41.764Z,1015.73
2017-09-21T10:57:51.729Z,1015.75
2017-09-21T10:59:01.681Z,1015.75
2017-09-21T11:00:11.946Z,1015.74
2017-09-21T11:01:22.225Z,1015.8
2017-09-21T11:02:32.773Z,1015.76
2017-09-21T11:03:42.406Z,1015.71
2017-09-21T11:04:52.676Z,1015.71
2017-09-21T11:06:02.956Z,1015.75
2017-09-21T11:07:13.244Z,1015.7
2017-09-21T11:08:23.864Z,1015.7
2017-09-21T11:09:34.156Z,1015.65
2017-09-21T11:10:44.114Z,1015.64
2017-09-21T11:11:54.370Z,1015.62
2017-09-21T11:13:04.626Z,1015.6
2017-09-21T11:14:14.867Z,1015.58
2017-09-21T11:15:25.137Z,1015.55
2017-09-21T11:16:35.402Z,1015.55
2017-09-21T11:17:45.659Z,1015.53
2017-09-21T11:18:55.972Z,1015.53
2017-09-21T11:20:06.539Z,1015.52
2017-09-21T11:21:17.046Z,1015.49
2017-09-21T11:22:27.318Z,1015.54
2017-09-21T11:23:37.269Z,1015.57
2017-09-21T11:24:47.527Z,1015.49
2017-09-21T11:25:58.097Z,1015.54
2017-09-21T11:27:08.089Z,1015.52
2017-09-21T11:28:18.034Z,1015.58
2017-09-21T11:29:28.298Z,1015.55
2017-09-21T11:30:38.558Z,1015.57
2017-09-21T11:31:49.114Z,1015.61
2017-09-21T11:32:59.318Z,1015.58
2017-09-21T11:34:09.611Z,1015.55
2017-09-21T11:35:19.599Z,1015.57
2017-09-21T11:36:29.884Z,1015.59
2017-09-21T11:37:40.524Z,1015.59
2017-09-21T11:38:50.486Z,1015.55
2017-09-21T11:40:00.767Z,1015.58
2017-09-21T11:41:11.047Z,1015.55
2017-09-21T11:42:21.003Z,1015.58
2017-09-21T11:43:31.630Z,1015.59
2017-09-21T11:44:42.131Z,1015.61
2017-09-21T11:45:52.419Z,1015.6
2017-09-21T11:47:02.696Z,1015.57
2017-09-21T11:48:12.353Z,1015.52
2017-09-21T11:49:22.892Z,1015.54
2017-09-21T11:50:33.200Z,1015.52
2017-09-21T11:51:43.140Z,1015.49
2017-09-21T11:52:53.287Z,1015.47
2017-09-21T11:54:03.254Z,1015.47
2017-09-21T11:55:13.461Z,1015.48
2017-09-21T11:56:23.714Z,1015.5
2017-09-21T11:57:33.971Z,1015.51
2017-09-21T11:58:44.248Z,1015.45
2017-09-21T11:59:54.500Z,1015.47
2017-09-21T12:01:05.013Z,1015.48
2017-09-21T12:02:14.963Z,1015.49
2017-09-21T12:03:25.223Z,1015.55
2017-09-21T12:04:35.492Z,1015.48
2017-09-21T12:05:45.972Z,1015.47
2017-09-21T12:06:56.510Z,1015.48
2017-09-21T12:08:06.527Z,1015.5
2017-09-21T12:09:16.483Z,1015.48
2017-09-21T12:10:26.792Z,1015.44
2017-09-21T12:11:36.468Z,1015.44
2017-09-21T12:12:46.717Z,1015.47
2017-09-21T12:13:56.773Z,1015.41
2017-09-21T12:15:06.823Z,1015.42
2017-09-21T12:16:16.500Z,1015.41
2017-09-21T12:17:26.792Z,1015.41
2017-09-21T12:18:37.422Z,1015.44
2017-09-21T12:19:47.690Z,1015.38
2017-09-21T12:20:57.958Z,1015.54
2017-09-21T12:22:07.926Z,1015.46
2017-09-21T12:23:17.871Z,1015.43
2017-09-21T12:24:28.175Z,1015.48
2017-09-21T12:25:38.114Z,1015.47
2017-09-21T12:26:48.068Z,1015.4
2017-09-21T12:27:57.696Z,1015.51
2017-09-21T12:29:07.994Z,1015.51
2017-09-21T12:30:18.568Z,1015.42
2017-09-21T12:31:28.189Z,1015.45
2017-09-21T12:32:38.457Z,1015.42
2017-09-21T12:33:48.406Z,1015.47
2017-09-21T12:34:58.368Z,1015.5
2017-09-21T12:36:08.918Z,1015.49
2017-09-21T12:37:19.185Z,1015.44
2017-09-21T12:38:29.141Z,1015.4
2017-09-21T12:39:39.411Z,1015.39
2017-09-21T12:40:49.358Z,1015.46
2017-09-21T12:41:59.876Z,1015.39
2017-09-21T12:43:09.828Z,1015.42
2017-09-21T12:44:20.125Z,1015.52
2017-09-21T12:45:30.406Z,1015.45
2017-09-21T12:46:40.347Z,1015.41
2017-09-21T12:47:50.858Z,1015.41
2017-09-21T12:49:01.132Z,1015.47
2017-09-21T12:50:11.406Z,1015.44
2017-09-21T12:51:21.671Z,1015.42
2017-09-21T12:52:31.946Z,1015.39
2017-09-21T12:53:42.460Z,1015.43
2017-09-21T12:54:52.732Z,1015.45
2017-09-21T12:56:02.997Z,1015.4
2017-09-21T12:57:12.949Z,1015.44
2017-09-21T12:58:23.219Z,1015.41
2017-09-21T12:59:33.718Z,1015.45
2017-09-21T13:00:43.689Z,1015.46
2017-09-21T13:01:53.645Z,1015.41
2017-09-21T13:03:03.902Z,1015.44
2017-09-21T13:04:13.838Z,1015.47
2017-09-21T13:05:23.825Z,1015.53
2017-09-21T13:06:33.763Z,1015.51
2017-09-21T13:07:43.726Z,1015.51
2017-09-21T13:08:53.675Z,1015.52
2017-09-21T13:10:03.962Z,1015.5
2017-09-21T13:11:14.571Z,1015.49
2017-09-21T13:12:24.528Z,1015.5
2017-09-21T13:13:34.806Z,1015.5
2017-09-21T13:14:45.068Z,1015.49
2017-09-21T13:15:55.339Z,1015.57
2017-09-21T13:17:05.856Z,1015.52
2017-09-21T13:18:16.113Z,1015.5
2017-09-21T13:19:25.444Z,1015.51
2017-09-21T13:20:35.725Z,1015.52
2017-09-21T13:21:46.020Z,1015.52
2017-09-21T13:22:56.561Z,1015.5
2017-09-21T13:24:06.515Z,1015.57
2017-09-21T13:25:16.778Z,1015.5
2017-09-21T13:26:27.040Z,1015.54
2017-09-21T13:27:37.310Z,1015.55
2017-09-21T13:28:47.825Z,1015.52
2017-09-21T13:29:58.324Z,1015.52
2017-09-21T13:31:08.583Z,1015.58
2017-09-21T13:32:18.836Z,1015.49
2017-09-21T13:33:28.777Z,1015.52
2017-09-21T13:34:39.295Z,1015.53
2017-09-21T13:35:49.239Z,1015.49
2017-09-21T13:36:59.182Z,1015.48
2017-09-21T13:38:09.436Z,1015.51
2017-09-21T13:39:19.393Z,1015.53
2017-09-21T13:40:29.637Z,1015.52
2017-09-21T13:41:39.577Z,1015.47
2017-09-21T13:42:49.846Z,1015.43
2017-09-21T13:44:00.107Z,1015.44
2017-09-21T13:45:10.399Z,1015.46
2017-09-21T13:46:20.900Z,1015.44
2017-09-21T13:47:31.162Z,1015.49
2017-09-21T13:48:41.101Z,1015.49
2017-09-21T13:49:50.423Z,1015.45
2017-09-21T13:51:00.694Z,1015.47
2017-09-21T13:52:10.619Z,1015.44
2017-09-21T13:53:20.556Z,1015.4
2017-09-21T13:54:30.815Z,1015.46
2017-09-21T13:55:41.081Z,1015.47
2017-09-21T13:56:51.364Z,1015.43
2017-09-21T13:58:01.894Z,1015.41
2017-09-21T13:59:12.170Z,1015.42
2017-09-21T14:00:22.459Z,1015.38
2017-09-21T14:01:32.715Z,1015.39
2017-09-21T14:02:42.652Z,1015.38
2017-09-21T14:03:52.958Z,1015.42
2017-09-21T14:05:03.215Z,1015.38
2017-09-21T14:06:13.175Z,1015.42
2017-09-21T14:07:23.445Z,1015.41
2017-09-21T14:08:33.384Z,1015.43
2017-09-21T14:09:43.631Z,1015.44
2017-09-21T14:10:53.911Z,1015.39
2017-09-21T14:12:04.166Z,1015.42